• Join FlightAware (Why Join?)
  • Login
  • US Flag 
09:40PM EST


 

Airport Tracker/Info


-or-


 

Live Flight TrackerFlight Track Log ✈ AVN51 ✈ 22-Feb-2014 ✈ NZAA / AKL - NVVV / VLI

Flight Track Log - Related Links

Times and Time Zones

All times are in EST time to prevent confusion due to time zone crossing. See the AVN51 flight status page for this flight to view local times or setup timezone preferences in your user account.

Time Position Orientation Groundspeed Altitude Reporting Facility
EST Latitude Longitude Course Direction KTS MPH feet Rate Location/Type
07:11PM -36.9086 174.7508 342° North  Level Estimated
07:11PM -37.0167 174.7667 342° North 116 133  Level New Zealand
07:12PM -37.0333 174.7000 253° West 192 221 1,920 Level New Zealand
07:13PM -37.0500 174.6333 253° West 232 267 2,640 Level New Zealand
07:14PM -36.9833 174.5833 329° Northwest 301 346 4,200 Level New Zealand
07:14PM -36.9118 174.5525 329° Northwest 328 377 7,700 7,380 Climbing FlightAware ADS-B
07:15PM -36.8810 174.5398 342° North 333 383 8,500 2,520 Climbing FlightAware ADS-B
07:15PM -36.8546 174.5291 342° North 336 387 9,400 2,640 Climbing FlightAware ADS-B
07:16PM -36.8077 174.5103 342° North 342 394 10,700 2,700 Climbing FlightAware ADS-B
07:16PM -36.7631 174.4928 343° North 350 403 12,100 2,820 Climbing FlightAware ADS-B
07:17PM -36.7168 174.4746 343° North 356 410 13,600 3,000 Climbing FlightAware ADS-B
07:17PM -36.6551 174.4502 342° North 359 413 15,600 2,880 Climbing FlightAware ADS-B
07:18PM -36.6093 174.4322 342° North 365 420 17,000 2,460 Climbing FlightAware ADS-B
07:18PM -36.5571 174.4115 342° North 374 430 18,200 2,220 Climbing FlightAware ADS-B
07:19PM -36.4907 174.3854 342° North 385 443 19,600 2,040 Climbing FlightAware ADS-B
07:20PM -36.4216 174.3581 342° North 395 455 20,900 1,860 Climbing FlightAware ADS-B
07:20PM -36.3641 174.3354 342° North 404 465 21,800 1,920 Climbing FlightAware ADS-B
07:21PM -36.3030 174.3114 342° North 415 478 23,000 1,680 Climbing FlightAware ADS-B
07:21PM -36.2364 174.2853 342° North 423 487 23,800 1,500 Climbing FlightAware ADS-B
07:22PM -36.1667 174.2500 342° North 427 491 1,680 Descending New Zealand
07:22PM -36.1607 174.2557 342° North 430 495 24,900 28,800 Climbing FlightAware ADS-B
07:23PM -36.0704 174.2204 342° North 434 499 26,400 1,560 Climbing FlightAware ADS-B
07:24PM -35.9333 174.1667 342° North 442 509 1,440 Descending New Zealand
07:24PM -35.9283 174.1651 342° North 445 512 28,100 46,680 Climbing FlightAware ADS-B
07:25PM -35.8555 174.1370 343° North 457 526 28,800 1,140 Climbing FlightAware ADS-B
07:26PM -35.6833 174.0667 343° North 472 543 -19,920 Descending New Zealand
07:27PM -35.5500 174.0167 343° North 469 540  Level New Zealand
07:28PM -35.4167 173.9667 343° North 470 541  Level New Zealand
07:29PM -35.2833 173.9167 343° North 474 545  Level New Zealand
07:30PM -35.1667 173.8667 341° North 470 541  Level New Zealand
07:31PM -35.0333 173.8167 343° North 469 540  Level New Zealand
07:32PM -34.9000 173.7667 343° North 469 540  Level New Zealand
07:33PM -34.7667 173.7167 343° North 469 540  Level New Zealand
07:34PM -34.6500 173.6667 341° North 470 541  Level New Zealand
07:35PM -34.5167 173.6167 343° North 472 543  Level New Zealand
07:36PM -34.3833 173.5667 343° North 474 545  Level New Zealand
07:37PM -34.2500 173.5333 348° North 477 549  Level New Zealand
07:38PM -34.1167 173.4667 338° Northwest 479 551  Level New Zealand
07:39PM -33.9833 173.4333 348° North 482 555  Level New Zealand
07:40PM -33.8500 173.3833 343° North 484 557  Level New Zealand
07:42PM -33.7167 173.3333 343° North 486 559  Level New Zealand
07:43PM -33.5833 173.2833 343° North 487 560  Level New Zealand
07:44PM -33.4500 173.2333 343° North 488 562  Level New Zealand
07:45PM -33.3667 173.2000 342° North 476 548  Level New Zealand
07:46PM -33.1833 173.1333 343° North 492 566  Level New Zealand
07:47PM -33.1000 173.1000 341° North 476 548  Level New Zealand
07:48PM -32.9167 173.0333 343° North 493 567  Level New Zealand
07:49PM -32.8500 173.0167 348° North 476 548  Level New Zealand
07:51PM -32.5167 172.8833 341° North 506 582  Level New Zealand
07:53PM -32.2500 172.8000 345° North 506 582  Level New Zealand
07:55PM -31.9833 172.7000 342° North 506 582  Level New Zealand
07:57PM -31.7000 172.6000 343° North 506 582  Level New Zealand
07:59PM -31.4333 172.5000 342° North 506 582  Level New Zealand
08:01PM -31.1500 172.4167 346° North 506 582  Level New Zealand
08:03PM -30.8833 172.3167 342° North 506 582  Level New Zealand
08:05PM -30.6167 172.2167 342° North 506 582  Level New Zealand
08:07PM -30.3500 172.1333 345° North 506 582  Level New Zealand
08:09PM -30.0833 172.0333 342° North 506 582  Level New Zealand
08:11PM -29.8000 171.9500 346° North 506 582  Level New Zealand
08:13PM -29.5333 171.8500 342° North 515 593  Level New Zealand
08:15PM -29.2667 171.7667 345° North 494 568  Level New Zealand
08:17PM -29.0167 171.6833 344° North 494 568  Level New Zealand
08:19PM -28.7500 171.5833 342° North 494 568  Level New Zealand
08:21PM -28.4833 171.5000 345° North 494 568  Level New Zealand
08:23PM -28.2167 171.4167 345° North 494 568  Level New Zealand
08:25PM -27.9500 171.3333 345° North 494 568  Level New Zealand
08:27PM -27.6833 171.2333 342° North 494 568  Level New Zealand
08:29PM -27.4167 171.1500 344° North 494 568  Level New Zealand
08:31PM -27.1667 171.0667 343° North 494 568  Level New Zealand
08:33PM -26.9000 170.9833 344° North 494 568  Level New Zealand
08:35PM -26.6333 170.9000 344° North 494 568  Level New Zealand
08:37PM -26.3667 170.8167 344° North 494 568  Level New Zealand
08:39PM -26.1000 170.7333 344° North 494 568  Level New Zealand
08:41PM -25.9212 170.6758 344° North  Level FlightAware Approximate
08:48PM -25.2390 170.4540 344° North  Level FlightAware Approximate
08:49PM -25.1416 170.4223 344° North  Level FlightAware Approximate
08:50PM -25.0442 170.3907 344° North  Level FlightAware Approximate
08:51PM -24.9467 170.3591 344° North  Level FlightAware Approximate
08:52PM -24.8493 170.3276 344° North  Level FlightAware Approximate
08:53PM -24.7518 170.2961 344° North  Level FlightAware Approximate
08:54PM -24.6544 170.2647 344° North  Level FlightAware Approximate
08:55PM -24.5569 170.2334 344° North  Level FlightAware Approximate
08:56PM -24.4594 170.2020 344° North  Level FlightAware Approximate
08:57PM -24.3620 170.1707 344° North  Level FlightAware Approximate
08:58PM -24.2645 170.1395 344° North  Level FlightAware Approximate
08:59PM -24.1670 170.1083 344° North  Level FlightAware Approximate
09:00PM -24.0695 170.0772 344° North  Level FlightAware Approximate
09:01PM -23.9720 170.0461 344° North  Level FlightAware Approximate
09:02PM -23.8745 170.0151 344° North  Level FlightAware Approximate
09:03PM -23.7770 169.9841 344° North  Level FlightAware Approximate
09:04PM -23.6794 169.9531 344° North  Level FlightAware Approximate
09:05PM -23.5819 169.9222 344° North  Level FlightAware Approximate
09:06PM -23.4844 169.8914 344° North  Level FlightAware Approximate
09:07PM -23.3869 169.8606 344° North  Level FlightAware Approximate
09:08PM -23.2893 169.8298 344° North  Level FlightAware Approximate
09:09PM -23.1918 169.7991 344° North  Level FlightAware Approximate
09:10PM -23.0942 169.7684 344° North  Level FlightAware Approximate
09:11PM -22.9966 169.7378 344° North  Level FlightAware Approximate
09:12PM -22.8991 169.7072 344° North  Level FlightAware Approximate
09:13PM -22.8015 169.6767 344° North  Level FlightAware Approximate
09:14PM -22.7039 169.6462 344° North  Level FlightAware Approximate
09:15PM -22.6063 169.6157 344° North  Level FlightAware Approximate
09:16PM -22.5087 169.5853 344° North  Level FlightAware Approximate
09:17PM -22.4111 169.5549 344° North  Level FlightAware Approximate
09:18PM -22.3135 169.5246 344° North  Level FlightAware Approximate
09:19PM -22.2159 169.4943 344° North  Level FlightAware Approximate
09:20PM -22.1183 169.4641 344° North  Level FlightAware Approximate
09:21PM -22.0207 169.4339 344° North  Level FlightAware Approximate
09:22PM -21.9231 169.4037 344° North  Level FlightAware Approximate
09:23PM -21.8254 169.3736 344° North  Level FlightAware Approximate
09:24PM -21.7278 169.3436 344° North  Level FlightAware Approximate
09:25PM -21.6302 169.3135 344° North  Level FlightAware Approximate
09:26PM -21.5325 169.2835 344° North  Level FlightAware Approximate
09:27PM -21.4349 169.2536 344° North  Level FlightAware Approximate
09:28PM -21.3372 169.2237 344° North  Level FlightAware Approximate
09:29PM -21.2395 169.1938 344° North  Level FlightAware Approximate
09:30PM -21.1419 169.1640 344° North  Level FlightAware Approximate
09:31PM -21.0442 169.1342 344° North  Level FlightAware Approximate
09:32PM -20.9465 169.1044 344° North  Level FlightAware Approximate
09:33PM -20.8488 169.0747 344° North  Level FlightAware Approximate
09:34PM -20.7512 169.0450 344° North  Level FlightAware Approximate
09:35PM -20.6535 169.0154 344° North  Level FlightAware Approximate
09:36PM -20.5558 168.9858 344° North  Level FlightAware Approximate
09:37PM -20.4581 168.9562 344° North  Level FlightAware Approximate
09:38PM -20.3603 168.9267 344° North  Level FlightAware Approximate
09:39PM -20.2626 168.8972 344° North  Level FlightAware Approximate
09:40PM -20.1649 168.8678 344° North  Level FlightAware Approximate
09:41PM -20.0672 168.8383 344° North  Level FlightAware Approximate
09:42PM -19.9695 168.8090 344° North  Level FlightAware Approximate
09:43PM -19.8717 168.7796 344° North  Level FlightAware Approximate
09:44PM -19.7740 168.7503 344° North  Level FlightAware Approximate
09:45PM -19.6763 168.7211 344° North  Level FlightAware Approximate
09:46PM -19.5785 168.6918 344° North  Level FlightAware Approximate
09:47PM -19.4808 168.6626 344° North  Level FlightAware Approximate
09:48PM -19.3830 168.6335 344° North  Level FlightAware Approximate
09:49PM -19.2845 168.6071 348° North  Level FlightAware Approximate
09:50PM -19.1852 168.5847 348° North  Level FlightAware Approximate
09:51PM -19.0859 168.5623 348° North  Level FlightAware Approximate
09:52PM -18.9866 168.5399 348° North  Level FlightAware Approximate
09:53PM -18.8873 168.5175 348° North  Level FlightAware Approximate
09:54PM -18.7879 168.4952 348° North  Level FlightAware Approximate
09:55PM -18.6886 168.4729 348° North  Level FlightAware Approximate
09:56PM -18.5893 168.4506 348° North  Level FlightAware Approximate
09:57PM -18.4899 168.4284 348° North  Level FlightAware Approximate
09:58PM -18.3906 168.4061 348° North  Level FlightAware Approximate
09:59PM -18.2913 168.3839 348° North  Level FlightAware Approximate
10:00PM -18.1919 168.3618 348° North  Level FlightAware Approximate
10:01PM -18.0926 168.3396 348° North  Level FlightAware Approximate
10:02PM -17.9932 168.3175 348° North  Level FlightAware Approximate
10:03PM -17.8939 168.2954 348° North  Level FlightAware Approximate
10:04PM -17.7945 168.2733 348° North  Level FlightAware Approximate
10:05PM -17.6952 168.2513 348° North  Level FlightAware Approximate
10:06PM -17.6621 168.2439 348° North  Level FlightAware Approximate
10:07PM -17.6993 168.3198 348° North  Level Estimated
10:08PM -17.6993 168.3198 348° North  Level Estimated
10:09PM -17.6993 168.3198 348° North  Level Estimated
10:10PM -17.6993 168.3198 348° North  Level Estimated
10:11PM -17.6993 168.3198 348° North  Level Estimated
10:12PM -17.6993 168.3198 348° North  Level Estimated